createdAt,value
2023-05-05T00:02:15.490Z,12.40
2023-05-05T00:04:43.427Z,12.48
2023-05-05T00:07:10.746Z,12.46
2023-05-05T00:09:39.205Z,12.42
2023-05-05T00:12:06.617Z,12.42
2023-05-05T00:14:34.306Z,12.37
2023-05-05T00:17:01.611Z,12.38
2023-05-05T00:19:29.238Z,12.40
2023-05-05T00:21:56.614Z,12.37
2023-05-05T00:24:24.290Z,12.30
2023-05-05T00:26:51.603Z,12.35
2023-05-05T00:29:19.176Z,12.42
2023-05-05T00:31:46.559Z,12.53
2023-05-05T00:34:14.330Z,12.54
2023-05-05T00:36:41.680Z,12.54
2023-05-05T00:39:09.986Z,12.55
2023-05-05T00:41:37.206Z,12.56
2023-05-05T00:44:07.847Z,12.64
2023-05-05T00:46:36.352Z,12.66
2023-05-05T00:49:04.489Z,12.68
2023-05-05T00:51:32.308Z,12.70
2023-05-05T00:54:00.783Z,12.75
2023-05-05T00:56:28.136Z,12.63
2023-05-05T00:58:56.485Z,12.70
2023-05-05T01:01:24.298Z,12.66
2023-05-05T01:03:52.374Z,12.82
2023-05-05T01:06:26.242Z,12.78
2023-05-05T01:09:12.278Z,12.82
2023-05-05T01:11:59.779Z,12.91
2023-05-05T01:14:43.457Z,12.90
2023-05-05T01:17:19.633Z,12.85
2023-05-05T01:20:17.043Z,12.92
2023-05-05T01:22:57.484Z,12.88
2023-05-05T01:25:41.564Z,12.83
2023-05-05T01:28:19.729Z,12.75
2023-05-05T01:31:38.304Z,12.77
2023-05-05T01:34:08.839Z,12.73
2023-05-05T01:36:42.440Z,12.68
2023-05-05T01:39:15.180Z,12.63
2023-05-05T01:41:49.679Z,12.57
2023-05-05T01:44:20.012Z,12.50
2023-05-05T01:46:50.541Z,12.48
2023-05-05T01:49:17.864Z,12.41
2023-05-05T01:51:47.088Z,12.35
2023-05-05T01:54:16.763Z,12.32
2023-05-05T01:56:46.562Z,12.22
2023-05-05T01:59:14.070Z,12.17
2023-05-05T02:01:46.000Z,12.15
2023-05-05T02:04:15.203Z,12.08
2023-05-05T02:06:45.465Z,12.00
2023-05-05T02:09:14.347Z,11.99
2023-05-05T02:11:42.686Z,11.87
2023-05-05T02:14:11.855Z,11.86
2023-05-05T02:16:41.715Z,11.83
2023-05-05T02:19:09.450Z,11.87
2023-05-05T02:21:37.864Z,11.77
2023-05-05T02:24:10.353Z,11.81
2023-05-05T02:26:40.790Z,11.82
2023-05-05T02:29:20.188Z,11.80
2023-05-05T02:31:55.855Z,11.77
2023-05-05T02:34:31.122Z,11.77
2023-05-05T02:37:03.074Z,11.84
2023-05-05T02:39:44.135Z,11.86
2023-05-05T02:42:20.653Z,11.76
2023-05-05T02:44:52.033Z,11.77
2023-05-05T02:47:20.976Z,11.84
2023-05-05T02:49:49.791Z,11.85
2023-05-05T02:52:17.468Z,11.93
2023-05-05T02:54:45.885Z,11.91
2023-05-05T02:57:20.880Z,11.88
2023-05-05T03:00:07.214Z,11.88
2023-05-05T03:03:03.116Z,11.99
2023-05-05T03:05:40.224Z,12.03
2023-05-05T03:08:17.118Z,12.07
2023-05-05T03:10:59.150Z,12.11
2023-05-05T03:13:29.624Z,12.12
2023-05-05T03:15:59.315Z,12.15
2023-05-05T03:18:29.982Z,12.21
2023-05-05T03:21:08.895Z,12.18
2023-05-05T03:23:39.803Z,12.12
2023-05-05T03:26:17.370Z,12.18
2023-05-05T03:28:45.247Z,12.24
2023-05-05T03:31:33.169Z,12.08
2023-05-05T03:34:02.321Z,12.32
2023-05-05T03:36:36.211Z,12.31
2023-05-05T03:39:04.182Z,12.40
2023-05-05T03:41:34.010Z,12.37
2023-05-05T03:44:01.971Z,12.42
2023-05-05T03:46:30.025Z,12.42
2023-05-05T03:48:57.691Z,12.50
2023-05-05T03:51:27.042Z,12.51
2023-05-05T03:53:55.484Z,12.57
2023-05-05T03:56:23.261Z,12.64
2023-05-05T03:58:55.720Z,12.64
2023-05-05T04:01:23.579Z,12.62
2023-05-05T04:03:53.775Z,12.69
2023-05-05T04:06:21.067Z,12.64
2023-05-05T04:08:48.658Z,12.65
2023-05-05T04:11:16.205Z,12.66
2023-05-05T04:13:43.793Z,12.62
2023-05-05T04:16:11.213Z,12.63
2023-05-05T04:18:39.334Z,12.66
2023-05-05T04:21:06.931Z,12.67
2023-05-05T04:23:36.781Z,12.64
2023-05-05T04:26:04.023Z,12.69
2023-05-05T04:28:31.693Z,12.70
2023-05-05T04:31:01.248Z,12.79
2023-05-05T04:33:31.429Z,12.85
2023-05-05T04:35:58.899Z,12.92
2023-05-05T04:38:26.909Z,12.85
2023-05-05T04:40:54.455Z,12.93
2023-05-05T04:43:22.926Z,12.93
2023-05-05T04:45:56.769Z,12.93
2023-05-05T04:48:28.324Z,13.05
2023-05-05T04:50:57.487Z,13.19
2023-05-05T04:53:27.254Z,13.25
2023-05-05T04:55:54.740Z,13.25
2023-05-05T04:58:22.326Z,13.13
2023-05-05T05:00:50.021Z,13.25
2023-05-05T05:03:19.672Z,13.38
2023-05-05T05:05:47.483Z,13.56
2023-05-05T05:08:20.960Z,13.72
2023-05-05T05:10:48.550Z,13.78
2023-05-05T05:13:16.091Z,14.05
2023-05-05T05:15:43.423Z,14.24
2023-05-05T05:18:11.296Z,14.50
2023-05-05T05:20:39.746Z,14.72
2023-05-05T05:23:08.581Z,15.06
2023-05-05T05:25:40.452Z,15.36
2023-05-05T05:28:10.594Z,15.36
2023-05-05T05:30:49.580Z,15.48
2023-05-05T05:33:17.103Z,15.79
2023-05-05T05:35:45.300Z,15.89
2023-05-05T05:38:13.303Z,15.83
2023-05-05T05:40:41.024Z,16.11
2023-05-05T05:43:09.379Z,16.27
2023-05-05T05:45:38.754Z,16.33
2023-05-05T05:48:08.063Z,16.62
2023-05-05T05:50:36.048Z,16.60
2023-05-05T05:53:03.738Z,16.58
2023-05-05T05:55:31.476Z,16.71
2023-05-05T05:57:59.485Z,16.39
2023-05-05T06:00:27.257Z,16.28
2023-05-05T06:03:02.693Z,16.57
2023-05-05T06:05:33.227Z,16.53
2023-05-05T06:08:01.496Z,16.98
2023-05-05T06:10:30.536Z,16.89
2023-05-05T06:13:03.169Z,17.21
2023-05-05T06:15:32.134Z,17.48
2023-05-05T06:18:01.756Z,17.51
2023-05-05T06:20:29.112Z,17.64
2023-05-05T06:22:57.118Z,17.68
2023-05-05T06:25:26.370Z,17.82
2023-05-05T06:27:53.944Z,18.12
2023-05-05T06:30:21.733Z,18.55
2023-05-05T06:32:49.389Z,19.31
2023-05-05T06:35:16.589Z,19.78
2023-05-05T06:37:44.439Z,19.67
2023-05-05T06:40:14.204Z,20.12
2023-05-05T06:42:42.046Z,20.43
2023-05-05T06:45:14.168Z,20.50
2023-05-05T06:47:42.584Z,20.91
2023-05-05T06:50:10.664Z,21.27
2023-05-05T06:52:38.556Z,20.83
2023-05-05T06:55:06.649Z,20.81
2023-05-05T06:57:34.171Z,21.26
2023-05-05T07:00:04.129Z,21.66
2023-05-05T07:02:34.390Z,21.75
2023-05-05T07:05:01.703Z,21.90
2023-05-05T07:07:29.453Z,22.07
2023-05-05T07:09:56.607Z,22.07
2023-05-05T07:12:24.337Z,22.02
2023-05-05T07:14:51.615Z,21.98
2023-05-05T07:17:19.190Z,21.99
2023-05-05T07:19:46.505Z,22.01
2023-05-05T07:22:14.027Z,21.65
2023-05-05T07:24:41.386Z,21.81
2023-05-05T07:27:09.643Z,22.23
2023-05-05T07:29:36.841Z,22.62
2023-05-05T07:32:04.668Z,22.77
2023-05-05T07:34:34.582Z,23.04
2023-05-05T07:37:02.449Z,23.05
2023-05-05T07:39:29.683Z,23.49
2023-05-05T07:41:57.326Z,23.07
2023-05-05T07:44:24.697Z,21.42
2023-05-05T07:46:52.231Z,22.46
2023-05-05T07:49:20.275Z,22.96
2023-05-05T07:51:50.300Z,23.21
2023-05-05T07:54:17.901Z,23.25
2023-05-05T07:56:45.482Z,23.53
2023-05-05T07:59:12.894Z,23.45
2023-05-05T08:01:40.450Z,22.99
2023-05-05T08:04:08.172Z,23.19
2023-05-05T08:06:36.236Z,23.50
2023-05-05T08:09:03.574Z,23.91
2023-05-05T08:11:31.094Z,24.02
2023-05-05T08:13:58.609Z,24.16
2023-05-05T08:16:26.190Z,22.98
2023-05-05T08:18:53.389Z,23.44
2023-05-05T08:21:21.081Z,23.43
2023-05-05T08:23:49.772Z,23.59
2023-05-05T08:26:20.180Z,23.97
2023-05-05T08:28:47.622Z,23.28
2023-05-05T08:31:16.009Z,22.21
2023-05-05T08:33:43.268Z,22.49
2023-05-05T08:36:11.711Z,22.31
2023-05-05T08:38:38.894Z,22.61
2023-05-05T08:41:08.888Z,22.46
2023-05-05T08:43:36.632Z,22.14
2023-05-05T08:46:05.285Z,23.38
2023-05-05T08:48:34.088Z,24.08
2023-05-05T08:51:05.649Z,24.07
2023-05-05T08:54:03.213Z,24.25
2023-05-05T08:56:40.334Z,24.44
2023-05-05T08:59:10.050Z,25.22
2023-05-05T09:01:38.297Z,24.32
2023-05-05T09:04:07.804Z,23.21
2023-05-05T09:06:37.252Z,23.17
2023-05-05T09:09:04.684Z,23.02
2023-05-05T09:11:34.464Z,22.03
2023-05-05T09:14:02.089Z,22.27
2023-05-05T09:16:29.811Z,22.18
2023-05-05T09:19:04.290Z,23.17
2023-05-05T09:21:32.528Z,23.46
2023-05-05T09:24:11.390Z,22.90
2023-05-05T09:26:42.541Z,23.28
2023-05-05T09:29:10.215Z,24.23
2023-05-05T09:31:38.066Z,24.36
2023-05-05T09:34:16.488Z,24.65
2023-05-05T09:36:48.367Z,24.23
2023-05-05T09:39:20.457Z,24.63
2023-05-05T09:41:48.085Z,24.79
2023-05-05T09:44:18.316Z,24.61
2023-05-05T09:46:53.275Z,24.94
2023-05-05T09:49:26.780Z,25.18
2023-05-05T09:51:55.223Z,24.99
2023-05-05T09:54:27.600Z,23.61
2023-05-05T09:56:56.806Z,24.24
2023-05-05T09:59:24.595Z,24.57
2023-05-05T10:01:52.430Z,25.17
2023-05-05T10:04:25.073Z,25.74
2023-05-05T10:06:52.827Z,25.03
2023-05-05T10:09:20.265Z,24.29
2023-05-05T10:11:48.330Z,25.21
2023-05-05T10:14:16.361Z,25.02
2023-05-05T10:16:49.187Z,24.73
2023-05-05T10:19:18.665Z,24.55
2023-05-05T10:21:54.524Z,25.64
2023-05-05T10:24:47.329Z,26.33
2023-05-05T10:27:20.202Z,25.77
2023-05-05T10:30:02.758Z,24.81
2023-05-05T10:35:02.863Z,26.48
2023-05-05T10:37:31.138Z,26.13
2023-05-05T10:39:59.380Z,25.44
2023-05-05T10:42:27.913Z,25.66
2023-05-05T10:44:55.942Z,25.88
2023-05-05T10:47:24.670Z,25.59
2023-05-05T10:50:02.514Z,25.37
2023-05-05T10:52:36.957Z,26.30
2023-05-05T10:55:16.636Z,26.75
2023-05-05T10:57:45.759Z,26.17
2023-05-05T11:00:39.979Z,25.73
2023-05-05T11:03:16.872Z,25.92
2023-05-05T11:06:02.975Z,25.92
2023-05-05T11:08:31.320Z,26.12
2023-05-05T11:10:59.406Z,25.76
2023-05-05T11:13:27.398Z,26.74
2023-05-05T11:15:55.929Z,27.11
2023-05-05T11:18:40.604Z,27.13
2023-05-05T11:21:15.997Z,27.55
2023-05-05T11:23:51.670Z,27.97
2023-05-05T11:26:51.913Z,27.62
2023-05-05T11:29:19.569Z,27.31
2023-05-05T11:32:13.803Z,25.96
2023-05-05T11:34:50.975Z,25.92
2023-05-05T11:37:22.697Z,26.11
2023-05-05T11:40:23.967Z,26.49
2023-05-05T11:43:04.855Z,26.60
2023-05-05T11:45:32.820Z,26.65
2023-05-05T11:48:25.110Z,26.23
2023-05-05T11:50:53.863Z,26.68
2023-05-05T11:53:21.128Z,26.49
2023-05-05T11:55:48.947Z,25.86
2023-05-05T11:58:20.140Z,25.07
2023-05-05T12:00:48.269Z,24.84
2023-05-05T12:03:17.987Z,24.50
2023-05-05T12:05:47.574Z,24.35
2023-05-05T12:08:14.984Z,24.46
2023-05-05T12:10:42.890Z,24.78
2023-05-05T12:13:20.386Z,25.55
2023-05-05T12:15:48.120Z,26.10
2023-05-05T12:18:19.520Z,26.32
2023-05-05T12:20:47.383Z,26.33
2023-05-05T12:23:14.981Z,27.22
2023-05-05T12:25:42.524Z,27.16
2023-05-05T12:28:09.943Z,27.18
2023-05-05T12:30:37.827Z,27.55
2023-05-05T12:33:07.349Z,27.10
2023-05-05T12:35:35.882Z,26.43
2023-05-05T12:38:03.388Z,26.87
2023-05-05T12:40:53.097Z,26.45
2023-05-05T12:43:31.904Z,26.18
2023-05-05T12:46:07.128Z,26.77
2023-05-05T12:48:35.987Z,26.19
2023-05-05T12:51:23.536Z,25.76
2023-05-05T12:54:11.215Z,25.82
2023-05-05T12:56:46.871Z,26.80
2023-05-05T12:59:23.040Z,27.08
2023-05-05T13:01:54.748Z,26.69
2023-05-05T13:04:26.290Z,27.21
2023-05-05T13:07:13.185Z,27.70
2023-05-05T13:09:40.970Z,27.71
2023-05-05T13:12:11.717Z,27.45
2023-05-05T13:14:40.167Z,27.71
2023-05-05T13:17:08.082Z,27.83
2023-05-05T13:19:35.953Z,28.10
2023-05-05T13:22:03.703Z,28.38
2023-05-05T13:24:42.782Z,28.16
2023-05-05T13:27:14.671Z,28.39
2023-05-05T13:29:42.497Z,28.59
2023-05-05T13:32:10.128Z,28.50
2023-05-05T13:34:39.338Z,28.35
2023-05-05T13:37:07.402Z,27.95
2023-05-05T13:39:34.915Z,27.76
2023-05-05T13:42:03.027Z,28.09
2023-05-05T13:44:31.566Z,27.82
2023-05-05T13:46:59.275Z,27.69
2023-05-05T13:49:27.197Z,26.43
2023-05-05T13:51:56.364Z,27.05
2023-05-05T13:54:23.673Z,27.30
2023-05-05T13:56:51.251Z,27.56
2023-05-05T13:59:18.525Z,26.78
2023-05-05T14:01:46.107Z,27.21
2023-05-05T14:04:13.538Z,27.61
2023-05-05T14:06:41.306Z,27.80
2023-05-05T14:09:08.626Z,26.99
2023-05-05T14:11:36.252Z,27.10
2023-05-05T14:14:03.483Z,27.36
2023-05-05T14:16:31.139Z,26.92
2023-05-05T14:18:58.515Z,27.03
2023-05-05T14:21:26.144Z,25.95
2023-05-05T14:23:53.517Z,25.83
2023-05-05T14:26:22.979Z,26.28
2023-05-05T14:28:50.371Z,25.79
2023-05-05T14:31:18.018Z,25.76
2023-05-05T14:33:45.203Z,26.10
2023-05-05T14:36:14.402Z,26.07
2023-05-05T14:38:42.978Z,26.36
2023-05-05T14:41:10.785Z,26.44
2023-05-05T14:43:38.060Z,26.75
2023-05-05T14:46:07.272Z,26.34
2023-05-05T14:48:34.975Z,26.46
2023-05-05T14:51:02.639Z,26.47
2023-05-05T14:53:29.972Z,26.54
2023-05-05T14:55:57.650Z,26.67
2023-05-05T14:58:25.405Z,26.87
2023-05-05T15:00:54.651Z,26.56
2023-05-05T15:03:22.605Z,26.50
2023-05-05T15:05:51.382Z,25.41
2023-05-05T15:08:22.146Z,25.03
2023-05-05T15:10:49.796Z,25.31
2023-05-05T15:13:17.469Z,25.41
2023-05-05T15:15:45.392Z,25.61
2023-05-05T15:18:16.009Z,25.59
2023-05-05T15:20:44.329Z,25.59
2023-05-05T15:23:12.085Z,25.48
2023-05-05T15:25:39.565Z,25.44
2023-05-05T15:28:06.844Z,25.70
2023-05-05T15:30:34.610Z,25.72
2023-05-05T15:33:03.122Z,25.43
2023-05-05T15:35:30.926Z,25.43
2023-05-05T15:37:58.392Z,24.96
2023-05-05T15:40:26.368Z,24.92
2023-05-05T15:42:53.944Z,24.64
2023-05-05T15:45:21.669Z,24.26
2023-05-05T15:47:50.692Z,24.27
2023-05-05T15:50:23.814Z,24.48
2023-05-05T15:52:58.652Z,24.49
2023-05-05T15:55:29.674Z,24.42
2023-05-05T15:57:57.014Z,24.35
2023-05-05T16:00:25.885Z,24.04
2023-05-05T16:03:14.178Z,23.88
2023-05-05T16:05:41.945Z,23.49
2023-05-05T16:08:10.508Z,23.33
2023-05-05T16:10:39.428Z,23.45
2023-05-05T16:13:07.024Z,23.54
2023-05-05T16:15:35.953Z,23.61
2023-05-05T16:18:03.168Z,23.48
2023-05-05T16:20:31.250Z,23.15
2023-05-05T16:22:59.666Z,23.05
2023-05-05T16:25:27.258Z,23.16
2023-05-05T16:27:56.741Z,23.33
2023-05-05T16:30:24.813Z,23.09
2023-05-05T16:32:52.473Z,23.09
2023-05-05T16:35:20.773Z,23.13
2023-05-05T16:37:48.018Z,22.86
2023-05-05T16:40:16.113Z,22.75
2023-05-05T16:42:44.669Z,22.58
2023-05-05T16:45:12.356Z,22.45
2023-05-05T16:47:39.742Z,22.37
2023-05-05T16:50:09.397Z,22.21
2023-05-05T16:52:36.713Z,22.15
2023-05-05T16:55:04.966Z,22.09
2023-05-05T16:57:32.191Z,22.15
2023-05-05T17:00:00.666Z,22.11
2023-05-05T17:02:27.962Z,22.05
2023-05-05T17:04:55.900Z,22.12
2023-05-05T17:07:23.144Z,22.01
2023-05-05T17:09:51.189Z,21.96
2023-05-05T17:12:18.573Z,21.89
2023-05-05T17:14:46.301Z,21.77
2023-05-05T17:17:18.109Z,21.62
2023-05-05T17:19:49.007Z,21.42
2023-05-05T17:22:16.622Z,21.28
2023-05-05T17:24:44.978Z,21.23
2023-05-05T17:27:12.915Z,21.15
2023-05-05T17:29:41.434Z,21.12
2023-05-05T17:32:09.408Z,21.03
2023-05-05T17:34:37.210Z,20.99
2023-05-05T17:37:04.433Z,20.89
2023-05-05T17:39:32.004Z,20.75
2023-05-05T17:41:59.223Z,20.78
2023-05-05T17:44:27.065Z,20.56
2023-05-05T17:46:54.350Z,20.43
2023-05-05T17:49:22.431Z,20.26
2023-05-05T17:51:49.660Z,20.12
2023-05-05T17:54:17.522Z,20.04
2023-05-05T17:56:44.715Z,19.97
2023-05-05T17:59:13.050Z,19.90
2023-05-05T18:01:45.261Z,19.80
2023-05-05T18:04:18.151Z,19.79
2023-05-05T18:06:45.372Z,19.63
2023-05-05T18:09:13.406Z,19.59
2023-05-05T18:11:40.719Z,19.52
2023-05-05T18:14:08.415Z,19.36
2023-05-05T18:16:40.342Z,19.25
2023-05-05T18:19:12.490Z,19.08
2023-05-05T18:21:39.885Z,18.97
2023-05-05T18:24:19.563Z,18.87
2023-05-05T18:26:51.234Z,18.72
2023-05-05T18:29:19.993Z,18.67
2023-05-05T18:31:51.984Z,18.47
2023-05-05T18:34:22.006Z,18.31
2023-05-05T18:36:53.712Z,18.39
2023-05-05T18:39:21.461Z,18.32
2023-05-05T18:41:48.897Z,18.30
2023-05-05T18:44:16.803Z,18.26
2023-05-05T18:46:44.135Z,18.16
2023-05-05T18:49:11.859Z,18.11
2023-05-05T18:51:39.190Z,17.91
2023-05-05T18:54:06.978Z,18.01
2023-05-05T18:56:34.277Z,17.97
2023-05-05T18:59:01.811Z,17.96
2023-05-05T19:01:29.241Z,17.89
2023-05-05T19:03:57.047Z,17.88
2023-05-05T19:06:24.378Z,17.91
2023-05-05T19:08:52.033Z,17.86
2023-05-05T19:11:19.284Z,17.78
2023-05-05T19:13:46.997Z,17.79
2023-05-05T19:16:14.400Z,17.71
2023-05-05T19:18:42.016Z,17.70
2023-05-05T19:21:09.464Z,17.73
2023-05-05T19:23:38.250Z,17.71
2023-05-05T19:26:06.089Z,17.65
2023-05-05T19:28:33.726Z,17.71
2023-05-05T19:31:01.331Z,17.60
2023-05-05T19:33:28.929Z,17.52
2023-05-05T19:35:56.667Z,17.57
2023-05-05T19:38:24.292Z,17.59
2023-05-05T19:40:54.253Z,17.68
2023-05-05T19:43:22.387Z,17.69
2023-05-05T19:45:49.676Z,17.59
2023-05-05T19:48:18.829Z,17.64
2023-05-05T19:50:46.096Z,17.68
2023-05-05T19:53:14.443Z,17.68
2023-05-05T19:55:42.560Z,17.61
2023-05-05T19:58:10.209Z,17.58
2023-05-05T20:00:38.658Z,17.57
2023-05-05T20:03:07.175Z,17.38
2023-05-05T20:05:34.511Z,17.33
2023-05-05T20:08:02.104Z,17.41
2023-05-05T20:10:30.773Z,17.31
2023-05-05T20:12:59.997Z,17.08
2023-05-05T20:15:27.496Z,17.00
2023-05-05T20:17:55.467Z,16.96
2023-05-05T20:20:23.175Z,16.95
2023-05-05T20:22:50.911Z,16.96
2023-05-05T20:25:19.122Z,17.04
2023-05-05T20:27:48.113Z,16.97
2023-05-05T20:30:15.485Z,16.96
2023-05-05T20:32:44.507Z,16.76
2023-05-05T20:35:12.979Z,16.90
2023-05-05T20:37:41.395Z,16.83
2023-05-05T20:40:09.511Z,16.80
2023-05-05T20:42:38.226Z,16.86
2023-05-05T20:45:07.125Z,16.86
2023-05-05T20:47:35.613Z,16.82
2023-05-05T20:50:04.106Z,16.78
2023-05-05T20:52:33.427Z,16.79
2023-05-05T20:55:00.645Z,16.69
2023-05-05T20:57:28.615Z,16.72
2023-05-05T20:59:55.879Z,16.70
2023-05-05T21:02:24.059Z,16.87
2023-05-05T21:04:52.681Z,16.90
2023-05-05T21:07:20.287Z,16.81
2023-05-05T21:09:47.821Z,16.73
2023-05-05T21:12:15.343Z,16.64
2023-05-05T21:14:45.980Z,16.59
2023-05-05T21:17:13.589Z,16.65
2023-05-05T21:19:41.993Z,16.60
2023-05-05T21:22:10.020Z,16.51
2023-05-05T21:24:39.056Z,16.41
2023-05-05T21:27:06.813Z,16.41
2023-05-05T21:29:37.732Z,16.38
2023-05-05T21:32:09.537Z,16.38
2023-05-05T21:34:37.394Z,16.32
2023-05-05T21:37:06.209Z,16.31
2023-05-05T21:39:33.665Z,16.26
2023-05-05T21:42:01.508Z,16.09
2023-05-05T21:44:36.560Z,15.89
2023-05-05T21:47:06.566Z,15.77
2023-05-05T21:49:37.140Z,15.96
2023-05-05T21:55:38.056Z,15.95
2023-05-05T22:01:44.653Z,16.12
2023-05-05T22:04:25.377Z,15.85
2023-05-05T22:07:06.452Z,15.73
2023-05-05T22:09:51.011Z,15.87
2023-05-05T22:12:50.182Z,15.87
2023-05-05T22:15:35.623Z,15.72
2023-05-05T22:18:34.541Z,15.75
2023-05-05T22:21:22.218Z,15.54
2023-05-05T22:27:00.769Z,15.70
2023-05-05T22:29:41.736Z,15.53
2023-05-05T22:35:29.096Z,15.28
2023-05-05T22:38:13.164Z,15.27
2023-05-05T22:40:49.716Z,15.17
2023-05-05T22:43:24.403Z,15.13
2023-05-05T22:45:53.896Z,14.98
2023-05-05T22:48:21.754Z,15.19
2023-05-05T22:50:49.105Z,15.10
2023-05-05T22:53:45.807Z,15.10
2023-05-05T22:56:31.164Z,15.21
2023-05-05T22:59:36.659Z,15.29
2023-05-05T23:02:13.942Z,15.22
2023-05-05T23:05:34.437Z,15.12
2023-05-05T23:08:13.315Z,15.08
2023-05-05T23:10:50.112Z,14.97
2023-05-05T23:13:22.396Z,15.01
2023-05-05T23:15:51.053Z,14.92
2023-05-05T23:18:20.097Z,14.99
2023-05-05T23:20:50.544Z,14.91
2023-05-05T23:23:21.905Z,14.81
2023-05-05T23:26:04.374Z,14.79
2023-05-05T23:28:35.676Z,14.69
2023-05-05T23:31:07.518Z,14.65
2023-05-05T23:33:42.515Z,14.74
2023-05-05T23:36:11.688Z,14.70
2023-05-05T23:38:45.678Z,14.64
2023-05-05T23:41:18.962Z,14.64
2023-05-05T23:43:47.309Z,14.57
2023-05-05T23:46:27.063Z,14.56
2023-05-05T23:49:02.050Z,14.62
2023-05-05T23:51:33.633Z,14.59
2023-05-05T23:54:06.824Z,14.53
2023-05-05T23:56:40.154Z,14.47
2023-05-05T23:59:11.021Z,14.43
